Airport details for: EHAM (Netherlands)

Metar

EHAM 240855Z 25017KT 9999 FEW020 SCT045 11/08 Q1014 NOSIG

General details

ICAO: EHAM
IATA: AMS
Name (city): Schiphol
Major:
Country: Netherlands
vACC: Dutch VACC
Description:
Scenery links:
FS9 scenery: Download
FSX/P3D scenery: Download
XP scenery:
Elevation: -11 ft.
Transition altitude: 3000 ft.
MSA: 12400 ft.
Latitude: 52.308056
Longitude: 4.764167
EHAM Charts
EHAM Notams
EHAM Online stations

Runways

Number Course Length Elevation Lat Lon ILS ILS freq ILS FAC GP
04 41° 6608ft / 2014 m -13ft 52.300372 4.783483 - - 3.0°
06 58° 11483ft / 3500 m -11ft 52.289131 4.737292 110.55 58° 3.0°
09 87° 11329ft / 3453 m -12ft 52.316689 4.747661 - - 3.0°
18C 183° 10827ft / 3300 m -12ft 52.331397 4.740031 109.5 183° 3.0°
18L 183° 11155ft / 3400 m -12ft 52.31615 4.779692 - - 3.0°
18R 183° 12467ft / 3800 m -13ft 52.360258 4.711725 110.1 183° 3.0°
22 221° 6608ft / 2014 m -14ft 52.314025 4.803025 109.15 221° 3.0°
24 238° 11483ft / 3500 m -12ft 52.304581 4.777517 - - 3.0°
27 267° 11329ft / 3453 m -12ft 52.318375 4.796892 111.55 267° 3.0°
36C 10827ft / 3300 m -12ft 52.305831 4.737683 108.75 3.0°
36L 12467ft / 3800 m -12ft 52.328581 4.708836 - - 3.0°
36R 11155ft / 3400 m -11ft 52.290825 4.777347 111.95 3.0°